Time;durP1;ratioP1;P1;durP2;ratioP2;P2;SDS_P1;SDS_P2;PMS_P1;PMS_P2;Temp;Humidity;BMP_temperature;BMP_pressure;BME280_temperature;BME280_humidity;BME280_pressure;Samples;Min_cycle;Max_cycle;Signal;HPM_P1;HPM_P2
2023/04/20 00:00:33;;;;;;;4.72;4.40;;;13.70;99.90;;;;;;4999039;28;20747;-70
2023/04/20 00:03:00;;;;;;;6.75;5.35;;;13.60;99.90;;;;;;5000877;28;20295;-70
2023/04/20 00:05:30;;;;;;;5.10;4.70;;;13.60;99.90;;;;;;5001903;28;20247;-70
2023/04/20 00:07:58;;;;;;;4.85;4.45;;;13.60;99.90;;;;;;5006308;28;20212;-70
2023/04/20 00:10:26;;;;;;;5.00;4.60;;;13.60;99.90;;;;;;5001047;28;20200;-70
2023/04/20 00:12:53;;;;;;;5.22;4.82;;;13.60;99.90;;;;;;5000538;28;20224;-70
2023/04/20 00:15:20;;;;;;;5.47;4.97;;;13.70;99.90;;;;;;5001652;28;20288;-70
2023/04/20 00:17:47;;;;;;;5.22;4.72;;;13.70;99.90;;;;;;4998178;28;20255;-70
2023/04/20 00:20:15;;;;;;;5.18;4.78;;;13.60;99.90;;;;;;5000909;28;20204;-70
2023/04/20 00:22:43;;;;;;;5.68;5.15;;;13.60;99.90;;;;;;5001806;28;20217;-70
2023/04/20 00:25:10;;;;;;;5.05;4.18;;;13.60;99.90;;;;;;4999383;28;20822;-70
2023/04/20 00:27:38;;;;;;;5.00;4.60;;;13.60;99.90;;;;;;5001145;28;20609;-70
2023/04/20 00:30:06;;;;;;;5.28;4.78;;;13.60;99.90;;;;;;4983046;28;20569;-70
2023/04/20 00:32:33;;;;;;;5.43;4.90;;;13.50;99.90;;;;;;4998174;28;20270;-70
2023/04/20 00:35:00;;;;;;;6.13;5.28;;;13.50;99.90;;;;;;4997421;28;20208;-70
2023/04/20 00:37:27;;;;;;;5.85;5.20;;;13.50;99.90;;;;;;5001190;28;20228;-70
2023/04/20 00:39:55;;;;;;;4.88;4.47;;;13.50;99.90;;;;;;5001478;28;20200;-70
2023/04/20 00:42:22;;;;;;;5.40;4.97;;;13.40;99.90;;;;;;4983027;28;20228;-70
2023/04/20 00:44:50;;;;;;;5.45;4.97;;;13.40;99.90;;;;;;5002137;28;20219;-70
2023/04/20 00:47:17;;;;;;;4.28;3.97;;;13.30;99.90;;;;;;4983931;28;20207;-70
2023/04/20 00:49:44;;;;;;;5.57;5.10;;;13.30;99.90;;;;;;4997393;28;20302;-70
2023/04/20 00:52:12;;;;;;;5.15;4.65;;;13.30;99.90;;;;;;4987027;28;20220;-70
2023/04/20 00:54:39;;;;;;;6.22;5.63;;;13.30;99.90;;;;;;4997441;28;20804;-70
2023/04/20 00:57:08;;;;;;;6.07;5.57;;;13.30;99.90;;;;;;4996359;28;20211;-70
2023/04/20 00:59:35;;;;;;;5.05;4.63;;;13.40;99.90;;;;;;5000762;28;20654;-70
2023/04/20 01:02:02;;;;;;;5.55;5.05;;;13.40;99.90;;;;;;4999478;28;20216;-70
2023/04/20 01:04:30;;;;;;;5.68;5.18;;;13.30;99.90;;;;;;4981200;28;20744;-70
2023/04/20 01:06:57;;;;;;;6.35;5.75;;;13.30;99.90;;;;;;4981419;28;20196;-70
2023/04/20 01:09:24;;;;;;;6.07;5.57;;;13.30;99.90;;;;;;4998052;28;20221;-70
2023/04/20 01:11:51;;;;;;;5.60;4.93;;;13.30;99.90;;;;;;4999824;28;20220;-70
2023/04/20 01:14:20;;;;;;;5.18;4.78;;;13.30;99.90;;;;;;4999934;28;20292;-70
2023/04/20 01:16:48;;;;;;;5.80;5.15;;;13.30;99.90;;;;;;5003158;28;20296;-70
2023/04/20 01:19:15;;;;;;;6.00;5.50;;;13.30;99.90;;;;;;4998495;28;20201;-70
2023/04/20 01:21:42;;;;;;;5.60;5.10;;;13.30;99.90;;;;;;4998279;28;20291;-69
2023/04/20 01:24:11;;;;;;;4.50;4.10;;;13.30;99.90;;;;;;4998728;28;20258;-70
2023/04/20 01:26:38;;;;;;;5.05;4.60;;;13.20;99.90;;;;;;4995174;28;20300;-72
2023/04/20 01:29:05;;;;;;;5.40;4.90;;;13.20;99.90;;;;;;4998489;28;20326;-72
2023/04/20 01:31:32;;;;;;;4.50;4.18;;;13.10;99.90;;;;;;5002413;28;20619;-71
2023/04/20 01:33:59;;;;;;;5.68;4.97;;;13.10;99.90;;;;;;5001919;28;20308;-72
2023/04/20 01:36:26;;;;;;;6.55;5.80;;;13.10;99.90;;;;;;4994903;28;20201;-70
2023/04/20 01:38:53;;;;;;;4.80;4.40;;;13.10;99.90;;;;;;4996473;28;20935;-72
2023/04/20 01:41:22;;;;;;;5.28;4.78;;;13.10;99.90;;;;;;5003901;28;20283;-72
2023/04/20 01:43:49;;;;;;;4.32;3.92;;;13.10;99.90;;;;;;4996660;28;20257;-71
2023/04/20 01:46:16;;;;;;;4.18;3.88;;;13.10;99.90;;;;;;4985422;28;20196;-71
2023/04/20 01:48:43;;;;;;;5.05;4.63;;;13.10;99.90;;;;;;5002104;28;20259;-72
2023/04/20 01:51:10;;;;;;;4.45;4.07;;;13.10;99.90;;;;;;4998147;28;20315;-71
2023/04/20 01:53:38;;;;;;;5.18;4.78;;;13.10;99.90;;;;;;4999848;28;20290;-71
2023/04/20 01:56:05;;;;;;;4.75;4.35;;;13.10;99.90;;;;;;4995988;28;20228;-71
2023/04/20 01:58:34;;;;;;;4.88;4.47;;;13.10;99.90;;;;;;5004724;28;20235;-71
2023/04/20 02:01:02;;;;;;;4.70;4.30;;;13.10;99.90;;;;;;4998392;28;20227;-71
2023/04/20 02:03:29;;;;;;;4.60;4.20;;;13.10;99.90;;;;;;4977845;28;20239;-71
2023/04/20 02:05:56;;;;;;;4.85;4.45;;;13.10;99.90;;;;;;4995717;28;20294;-71
2023/04/20 02:08:23;;;;;;;4.32;4.03;;;13.00;99.90;;;;;;5003850;28;20247;-71
2023/04/20 02:10:50;;;;;;;4.93;4.53;;;13.00;99.90;;;;;;4999784;28;20286;-70
2023/04/20 02:13:17;;;;;;;5.43;5.03;;;13.00;99.90;;;;;;5001294;28;20323;-71
2023/04/20 02:15:46;;;;;;;4.85;4.45;;;13.00;99.90;;;;;;5006524;28;20248;-71
2023/04/20 02:18:15;;;;;;;5.63;5.00;;;12.90;99.90;;;;;;5010585;28;20204;-71
2023/04/20 02:20:42;;;;;;;5.25;4.82;;;12.70;99.90;;;;;;5010913;28;20685;-71
2023/04/20 02:23:09;;;;;;;5.85;5.32;;;12.50;99.90;;;;;;5015517;28;20306;-71
2023/04/20 02:25:36;;;;;;;5.45;4.95;;;12.40;99.90;;;;;;4998867;28;20212;-72
2023/04/20 02:28:04;;;;;;;5.95;5.05;;;12.30;99.90;;;;;;5000593;28;20294;-72
2023/04/20 02:30:31;;;;;;;4.72;4.32;;;12.10;99.90;;;;;;4997709;28;20881;-72
2023/04/20 02:33:00;;;;;;;4.82;4.45;;;12.00;99.90;;;;;;4999378;28;20250;-71
2023/04/20 02:35:27;;;;;;;4.82;3.70;;;11.80;99.90;;;;;;4986532;28;20752;-71
2023/04/20 02:37:54;;;;;;;3.63;3.30;;;11.70;99.90;;;;;;4997800;28;20196;-71
2023/04/20 02:40:21;;;;;;;2.47;2.38;;;11.50;99.90;;;;;;4995673;28;20197;-70
2023/04/20 02:42:49;;;;;;;2.33;2.20;;;11.40;99.90;;;;;;4990854;28;20311;-70
2023/04/20 02:45:16;;;;;;;1.98;1.88;;;11.30;99.90;;;;;;4998079;28;20235;-70
2023/04/20 02:47:43;;;;;;;2.15;2.00;;;11.20;99.90;;;;;;5000198;28;20231;-70
2023/04/20 02:50:12;;;;;;;2.80;2.42;;;11.10;99.90;;;;;;4998912;28;20307;-70
2023/04/20 02:52:39;;;;;;;2.10;2.00;;;11.00;99.90;;;;;;4982274;28;20220;-70
2023/04/20 02:55:07;;;;;;;2.33;2.13;;;10.90;99.90;;;;;;4982895;28;20263;-70
2023/04/20 02:57:34;;;;;;;1.95;1.85;;;10.80;99.90;;;;;;4998903;28;20302;-70
2023/04/20 03:00:01;;;;;;;1.83;1.73;;;10.80;99.90;;;;;;5004118;28;20236;-70
2023/04/20 03:02:28;;;;;;;1.63;1.52;;;10.70;99.90;;;;;;5002873;28;20220;-70
2023/04/20 03:04:55;;;;;;;2.55;1.58;;;10.60;99.90;;;;;;4995571;28;20343;-70
2023/04/20 03:07:24;;;;;;;1.52;1.50;;;10.60;99.90;;;;;;5000793;28;20212;-70
2023/04/20 03:09:51;;;;;;;1.30;1.30;;;10.50;99.90;;;;;;5006433;28;20252;-70
2023/04/20 03:12:19;;;;;;;1.48;1.38;;;10.50;99.90;;;;;;4990288;28;20339;-71
2023/04/20 03:14:46;;;;;;;1.70;1.60;;;10.40;99.90;;;;;;4999532;28;20201;-71
2023/04/20 03:17:13;;;;;;;1.52;1.45;;;10.40;99.90;;;;;;5004549;28;20196;-70
2023/04/20 03:19:40;;;;;;;1.17;1.17;;;10.30;99.90;;;;;;4987965;28;20693;-71
2023/04/20 03:22:07;;;;;;;1.27;1.27;;;10.30;99.90;;;;;;5004536;28;20311;-71
2023/04/20 03:24:35;;;;;;;1.60;1.60;;;10.30;99.90;;;;;;5008572;28;20231;-72
2023/04/20 03:27:02;;;;;;;1.40;1.40;;;10.30;99.90;;;;;;5004526;28;20259;-73
2023/04/20 03:29:29;;;;;;;1.27;1.27;;;10.30;99.90;;;;;;4999722;28;20256;-73
2023/04/20 03:31:56;;;;;;;1.50;1.40;;;10.40;99.90;;;;;;5011616;28;20224;-72
2023/04/20 03:34:25;;;;;;;1.90;1.60;;;10.40;99.90;;;;;;5001358;28;20232;-73
2023/04/20 03:36:52;;;;;;;2.03;1.35;;;10.40;99.90;;;;;;4999992;28;20215;-72
2023/04/20 03:39:19;;;;;;;1.20;1.20;;;10.40;99.90;;;;;;5000105;28;20290;-72
2023/04/20 03:41:48;;;;;;;1.33;1.33;;;10.30;99.90;;;;;;5001934;28;20224;-72
2023/04/20 03:44:15;;;;;;;1.70;1.30;;;10.30;99.90;;;;;;5001256;28;20731;-72
2023/04/20 03:46:42;;;;;;;1.50;1.40;;;10.20;99.90;;;;;;5000938;28;20200;-72
2023/04/20 03:49:09;;;;;;;1.48;1.38;;;10.20;99.90;;;;;;4982364;28;20219;-72
2023/04/20 03:51:37;;;;;;;1.25;1.25;;;10.10;99.90;;;;;;5002316;28;20653;-71
2023/04/20 03:54:04;;;;;;;1.17;1.17;;;10.00;99.90;;;;;;5001535;28;20299;-71
2023/04/20 03:56:31;;;;;;;1.70;1.60;;;10.00;99.90;;;;;;4997625;28;20208;-71
2023/04/20 03:59:00;;;;;;;1.52;1.50;;;10.00;99.90;;;;;;4986729;28;20724;-71
2023/04/20 04:01:28;;;;;;;1.40;1.40;;;10.00;99.90;;;;;;4986473;28;20201;-71
2023/04/20 04:03:55;;;;;;;1.50;1.40;;;10.00;99.90;;;;;;5003393;28;20315;-72
2023/04/20 04:06:22;;;;;;;1.55;1.45;;;9.90;99.90;;;;;;5003906;28;20291;-71
2023/04/20 04:08:49;;;;;;;1.83;1.73;;;9.80;99.90;;;;;;5002527;28;20235;-71
2023/04/20 04:11:16;;;;;;;1.52;1.52;;;9.90;99.90;;;;;;4985942;28;20292;-71
2023/04/20 04:13:43;;;;;;;2.08;1.98;;;9.80;99.90;;;;;;5004266;28;20721;-71
2023/04/20 04:16:12;;;;;;;1.83;1.73;;;9.90;99.90;;;;;;5001008;28;20258;-71
2023/04/20 04:18:43;;;;;;;2.20;2.10;;;9.80;99.90;;;;;;5000364;28;20220;-71
2023/04/20 04:21:10;;;;;;;2.40;2.20;;;9.80;99.90;;;;;;5002172;28;20698;-71
2023/04/20 04:23:37;;;;;;;2.00;1.90;;;9.80;99.90;;;;;;4994122;28;20315;-71
2023/04/20 04:26:06;;;;;;;2.47;2.38;;;9.70;99.90;;;;;;4993093;28;20295;-71
2023/04/20 04:28:33;;;;;;;2.30;2.20;;;9.80;99.90;;;;;;4998340;28;20887;-71
2023/04/20 04:31:04;;;;;;;2.20;2.10;;;9.90;99.90;;;;;;5000578;28;20300;-71
2023/04/20 04:33:33;;;;;;;2.58;2.47;;;9.90;99.90;;;;;;4986335;28;20225;-71
2023/04/20 04:36:01;;;;;;;2.67;2.50;;;9.90;99.90;;;;;;4998757;28;20200;-71
2023/04/20 04:38:28;;;;;;;2.20;2.10;;;9.90;99.90;;;;;;4980860;28;20935;-71
2023/04/20 04:40:56;;;;;;;1.98;1.88;;;10.00;99.90;;;;;;4996445;28;20196;-71
2023/04/20 04:43:23;;;;;;;2.20;2.10;;;10.10;99.90;;;;;;4998576;28;20708;-71
2023/04/20 04:45:50;;;;;;;2.35;2.25;;;10.10;99.90;;;;;;4999631;28;20258;-71
2023/04/20 04:48:17;;;;;;;2.45;2.35;;;10.20;99.90;;;;;;4999251;28;20243;-71
2023/04/20 04:50:46;;;;;;;2.00;1.90;;;10.10;99.90;;;;;;4999208;28;20299;-71
2023/04/20 04:53:13;;;;;;;2.28;2.17;;;10.10;99.90;;;;;;4999066;28;20278;-72
2023/04/20 04:55:40;;;;;;;2.05;1.95;;;10.20;99.90;;;;;;4995784;28;20295;-71
2023/04/20 04:58:07;;;;;;;2.58;2.40;;;10.20;99.90;;;;;;4997231;28;20323;-71
2023/04/20 05:00:34;;;;;;;2.00;1.90;;;10.20;99.90;;;;;;4999727;28;20908;-71
2023/04/20 05:03:02;;;;;;;2.00;1.90;;;10.30;99.90;;;;;;4995772;28;20248;-71
2023/04/20 05:05:29;;;;;;;1.85;1.75;;;10.30;99.90;;;;;;4996533;28;20687;-71
2023/04/20 05:07:58;;;;;;;1.80;1.70;;;10.30;99.90;;;;;;5001553;28;20288;-71
2023/04/20 05:10:25;;;;;;;2.30;2.20;;;10.30;99.90;;;;;;4996212;28;20303;-71
2023/04/20 05:12:52;;;;;;;2.25;2.15;;;10.20;99.90;;;;;;4997296;28;20220;-71
2023/04/20 05:15:19;;;;;;;3.05;2.85;;;10.20;99.90;;;;;;4997434;28;20207;-71
2023/04/20 05:17:48;;;;;;;2.17;2.08;;;10.10;99.90;;;;;;4993532;28;20208;-71
2023/04/20 05:20:15;;;;;;;2.70;2.50;;;10.20;99.90;;;;;;4996897;28;20200;-71
2023/04/20 05:22:42;;;;;;;2.92;2.72;;;10.20;99.90;;;;;;5000078;28;20493;-71
2023/04/20 05:25:11;;;;;;;2.92;2.72;;;10.20;99.90;;;;;;4995870;28;20685;-71
2023/04/20 05:27:38;;;;;;;2.88;2.67;;;10.20;99.90;;;;;;4996354;28;20232;-71
2023/04/20 05:30:07;;;;;;;3.05;2.85;;;10.10;99.90;;;;;;4982865;28;20240;-71
2023/04/20 05:32:34;;;;;;;2.40;2.30;;;10.10;99.90;;;;;;4997694;28;20389;-71
2023/04/20 05:35:01;;;;;;;2.58;2.45;;;10.10;99.90;;;;;;4995424;28;20958;-71
2023/04/20 05:37:28;;;;;;;2.90;2.70;;;10.10;99.90;;;;;;4997871;28;20201;-70
2023/04/20 05:39:55;;;;;;;3.10;2.90;;;10.10;99.90;;;;;;4998093;28;20287;-70
2023/04/20 05:42:23;;;;;;;3.42;3.22;;;10.10;99.90;;;;;;4995121;28;20303;-70
2023/04/20 05:44:51;;;;;;;2.97;2.78;;;10.20;99.90;;;;;;4999633;28;20287;-70
2023/04/20 05:47:18;;;;;;;2.88;2.67;;;10.20;99.90;;;;;;4998677;28;20323;-70
2023/04/20 05:49:45;;;;;;;3.10;2.90;;;10.20;99.90;;;;;;4997070;28;20262;-71
2023/04/20 05:52:12;;;;;;;2.38;2.20;;;10.20;99.90;;;;;;4996644;28;20303;-70
2023/04/20 05:54:39;;;;;;;2.65;2.53;;;10.30;99.90;;;;;;4976649;28;20305;-70
2023/04/20 05:57:06;;;;;;;3.20;3.00;;;10.30;99.90;;;;;;4995163;28;20231;-70
2023/04/20 05:59:35;;;;;;;2.83;2.63;;;10.40;99.90;;;;;;5000172;28;20285;-70
2023/04/20 06:02:02;;;;;;;2.67;2.47;;;10.50;99.90;;;;;;4995732;28;20323;-70
2023/04/20 06:04:29;;;;;;;3.63;3.33;;;10.50;99.90;;;;;;4994720;28;20246;-70
2023/04/20 06:06:56;;;;;;;3.10;2.88;;;10.50;99.90;;;;;;4995746;28;20204;-70
2023/04/20 06:09:23;;;;;;;3.22;3.03;;;10.50;99.90;;;;;;4981118;28;20205;-70
2023/04/20 06:11:50;;;;;;;2.78;2.58;;;10.60;99.90;;;;;;4995119;28;20203;-70
2023/04/20 06:14:17;;;;;;;2.97;2.78;;;10.60;99.90;;;;;;4997254;28;20797;-70
2023/04/20 06:16:46;;;;;;;2.92;2.72;;;10.60;99.90;;;;;;4979264;28;20203;-70
2023/04/20 06:19:12;;;;;;;2.92;2.72;;;10.70;99.90;;;;;;4996258;28;20302;-70
2023/04/20 06:21:41;;;;;;;3.90;3.60;;;10.70;99.90;;;;;;4998476;28;20288;-70
2023/04/20 06:24:08;;;;;;;3.10;2.90;;;10.60;99.90;;;;;;4998258;28;20723;-70
2023/04/20 06:26:35;;;;;;;3.22;3.03;;;10.60;99.90;;;;;;4979397;28;20292;-70
2023/04/20 06:29:02;;;;;;;3.45;3.25;;;10.60;99.90;;;;;;4998678;28;20259;-70
2023/04/20 06:31:29;;;;;;;3.60;3.30;;;10.60;99.90;;;;;;5000060;28;20219;-70
2023/04/20 06:33:58;;;;;;;3.30;3.00;;;10.60;99.90;;;;;;5001325;28;20351;-70
2023/04/20 06:36:26;;;;;;;3.85;3.55;;;10.60;99.90;;;;;;4988096;28;20205;-70
2023/04/20 06:38:53;;;;;;;3.78;3.47;;;10.70;99.90;;;;;;4997792;28;20274;-70
2023/04/20 06:41:20;;;;;;;3.72;3.42;;;10.70;99.90;;;;;;5002565;28;20201;-70
2023/04/20 06:43:47;;;;;;;3.70;3.40;;;10.90;99.90;;;;;;4981356;28;20229;-70
2023/04/20 06:46:14;;;;;;;3.90;3.60;;;11.10;99.90;;;;;;5000802;28;20375;-70
2023/04/20 06:48:42;;;;;;;4.65;4.20;;;11.20;99.90;;;;;;4987731;28;20215;-70
2023/04/20 06:51:12;;;;;;;3.95;3.65;;;11.40;99.90;;;;;;4998223;28;20294;-70
2023/04/20 06:53:39;;;;;;;4.55;4.15;;;11.40;99.90;;;;;;4999221;28;20315;-70
2023/04/20 06:56:07;;;;;;;4.28;3.55;;;11.50;99.90;;;;;;5000018;28;20281;-70
2023/04/20 06:58:34;;;;;;;3.80;3.50;;;11.60;99.90;;;;;;5000431;28;20205;-71
2023/04/20 07:01:01;;;;;;;3.15;2.95;;;11.60;99.90;;;;;;5000140;28;20664;-70
2023/04/20 07:03:29;;;;;;;3.78;3.50;;;11.60;99.90;;;;;;4998391;28;20247;-70
2023/04/20 07:05:56;;;;;;;3.30;3.10;;;11.60;99.90;;;;;;5000315;28;20258;-70
2023/04/20 07:08:24;;;;;;;3.08;2.88;;;11.60;99.90;;;;;;4985410;28;20286;-70
2023/04/20 07:10:51;;;;;;;3.22;2.92;;;11.70;99.90;;;;;;5002379;28;20225;-70
2023/04/20 07:13:19;;;;;;;3.47;3.17;;;11.70;99.90;;;;;;4999704;28;20451;-70
2023/04/20 07:15:47;;;;;;;3.50;3.20;;;11.70;99.90;;;;;;4998635;28;20796;-70
2023/04/20 07:18:14;;;;;;;3.50;3.25;;;11.70;99.90;;;;;;4998978;28;20212;-70
2023/04/20 07:20:41;;;;;;;3.08;2.88;;;11.80;99.90;;;;;;4995000;28;20288;-70
2023/04/20 07:23:08;;;;;;;3.50;3.20;;;11.80;99.90;;;;;;4999385;28;20298;-71
2023/04/20 07:25:36;;;;;;;3.80;3.22;;;11.80;99.90;;;;;;5001362;28;20230;-71
2023/04/20 07:28:04;;;;;;;3.00;2.80;;;11.90;99.90;;;;;;4999959;28;20635;-70
2023/04/20 07:30:31;;;;;;;4.38;3.25;;;12.00;99.90;;;;;;4981258;28;20256;-70
2023/04/20 07:33:00;;;;;;;4.95;4.55;;;12.10;99.90;;;;;;4999775;28;20221;-71
2023/04/20 07:35:27;;;;;;;3.53;3.22;;;12.10;99.90;;;;;;4979040;28;20215;-71
2023/04/20 07:37:54;;;;;;;4.32;3.92;;;12.00;99.90;;;;;;4999469;28;20240;-71
2023/04/20 07:40:21;;;;;;;3.50;2.80;;;11.90;99.90;;;;;;4994687;28;20237;-72
2023/04/20 07:42:50;;;;;;;3.78;3.47;;;11.80;99.90;;;;;;4997887;28;20229;-72
2023/04/20 07:45:17;;;;;;;3.60;3.30;;;11.80;99.90;;;;;;4997097;28;20300;-72
2023/04/20 07:47:46;;;;;;;4.22;3.28;;;11.70;99.90;;;;;;4996339;28;20287;-72
2023/04/20 07:50:13;;;;;;;4.03;3.63;;;11.60;99.90;;;;;;4995959;28;20220;-72
2023/04/20 07:52:40;;;;;;;4.15;3.85;;;11.50;99.90;;;;;;4999839;28;20247;-72
2023/04/20 07:55:10;;;;;;;3.90;3.60;;;11.40;99.90;;;;;;4999001;28;20254;-72
2023/04/20 07:57:38;;;;;;;4.72;4.28;;;11.40;99.90;;;;;;4999449;28;20209;-72
2023/04/20 08:00:09;;;;;;;3.63;3.33;;;11.40;99.90;;;;;;4997686;28;20287;-71
2023/04/20 08:02:36;;;;;;;3.95;3.65;;;11.50;99.90;;;;;;4981487;28;20228;-73
2023/04/20 08:05:03;;;;;;;4.00;3.70;;;11.60;99.90;;;;;;5002262;28;20236;-72
2023/04/20 08:07:30;;;;;;;3.40;3.10;;;11.60;99.90;;;;;;4997106;28;20295;-72
2023/04/20 08:09:57;;;;;;;3.22;3.03;;;11.60;99.90;;;;;;4998550;28;20204;-72
2023/04/20 08:12:25;;;;;;;3.05;2.85;;;11.70;99.90;;;;;;4998860;28;20783;-73
2023/04/20 08:14:52;;;;;;;3.33;3.13;;;11.80;99.90;;;;;;4981149;28;20227;-72
2023/04/20 08:17:21;;;;;;;3.25;3.05;;;11.90;99.90;;;;;;4994670;28;20236;-72
2023/04/20 08:19:48;;;;;;;4.18;3.72;;;11.90;99.90;;;;;;4997231;28;21224;-75
2023/04/20 08:22:15;;;;;;;4.07;3.78;;;12.00;99.90;;;;;;4999670;28;20709;-75
2023/04/20 08:24:42;;;;;;;3.38;3.17;;;12.00;99.90;;;;;;4996816;28;20291;-75
2023/04/20 08:27:09;;;;;;;3.40;3.10;;;12.20;99.90;;;;;;4981021;28;20224;-73
2023/04/20 08:29:36;;;;;;;3.53;3.33;;;12.50;99.90;;;;;;4997208;28;20231;-73
2023/04/20 08:32:04;;;;;;;3.03;2.83;;;13.00;99.90;;;;;;4996192;28;20690;-73
2023/04/20 08:34:33;;;;;;;3.28;3.05;;;13.10;99.90;;;;;;4997100;28;20229;-73
2023/04/20 08:37:00;;;;;;;3.50;3.20;;;13.50;99.90;;;;;;4981540;28;20686;-72
2023/04/20 08:39:28;;;;;;;3.60;3.30;;;13.90;99.90;;;;;;4995868;28;20215;-73
2023/04/20 08:41:56;;;;;;;3.25;2.95;;;14.10;99.90;;;;;;4998246;28;20213;-73
2023/04/20 08:44:24;;;;;;;3.28;2.97;;;14.20;99.90;;;;;;5006686;28;20223;-73
2023/04/20 08:46:51;;;;;;;2.60;2.50;;;14.30;99.90;;;;;;5010802;28;20511;-73
2023/04/20 08:49:20;;;;;;;3.00;2.80;;;14.20;99.90;;;;;;4983371;28;20309;-73
2023/04/20 08:51:49;;;;;;;3.05;2.85;;;14.00;99.90;;;;;;4997096;28;20231;-73
2023/04/20 08:54:16;;;;;;;3.78;3.42;;;13.70;99.90;;;;;;4996263;28;20271;-72
2023/04/20 08:56:45;;;;;;;3.15;2.35;;;13.40;99.90;;;;;;4992310;28;20722;-72
2023/04/20 08:59:13;;;;;;;2.70;2.53;;;13.10;99.90;;;;;;4996484;28;20288;-72
2023/04/20 09:01:41;;;;;;;2.92;2.72;;;13.10;99.90;;;;;;4965990;28;20215;-74
2023/04/20 09:04:18;;;;;;;2.60;2.42;;;13.10;99.90;;;;;;5003982;28;20239;-74
2023/04/20 09:06:46;;;;;;;3.10;2.53;;;13.10;99.90;;;;;;4991880;28;20251;-74
2023/04/20 09:09:14;;;;;;;2.65;2.50;;;13.10;99.90;;;;;;4984539;28;20811;-73
2023/04/20 09:11:41;;;;;;;2.25;2.13;;;13.20;99.90;;;;;;4997322;28;20300;-74
2023/04/20 09:14:11;;;;;;;2.95;2.47;;;13.30;99.90;;;;;;4994312;28;20285;-73
2023/04/20 09:16:48;;;;;;;2.40;2.30;;;13.50;99.90;;;;;;4974251;28;20254;-73
2023/04/20 09:19:15;;;;;;;2.38;2.28;;;13.50;99.90;;;;;;4999768;28;20208;-73
2023/04/20 09:21:48;;;;;;;2.63;2.42;;;13.50;99.90;;;;;;4979275;28;20213;-73
2023/04/20 09:24:20;;;;;;;2.33;2.13;;;13.60;99.90;;;;;;4997948;28;20295;-73
2023/04/20 09:26:47;;;;;;;2.20;2.10;;;13.80;99.90;;;;;;4997011;28;20215;-73
2023/04/20 09:29:18;;;;;;;2.17;2.08;;;13.80;99.90;;;;;;4997284;28;20287;-73
2023/04/20 09:31:45;;;;;;;2.05;1.95;;;13.70;99.90;;;;;;4991949;28;20668;-73
2023/04/20 09:34:13;;;;;;;2.30;2.20;;;13.50;99.90;;;;;;4979417;28;20201;-73
2023/04/20 09:36:41;;;;;;;2.80;2.60;;;13.40;99.90;;;;;;4977843;28;20212;-73
2023/04/20 09:39:10;;;;;;;2.55;2.35;;;13.40;99.90;;;;;;4997016;28;20295;-73
2023/04/20 09:41:40;;;;;;;2.58;2.38;;;13.50;99.90;;;;;;4999555;28;20241;-73
2023/04/20 09:44:08;;;;;;;2.55;2.35;;;13.50;99.90;;;;;;4998703;28;20207;-73
2023/04/20 09:46:37;;;;;;;2.17;2.05;;;13.50;99.90;;;;;;4999461;28;20231;-73
2023/04/20 09:49:06;;;;;;;2.50;2.40;;;13.50;99.90;;;;;;4981344;28;20208;-73
2023/04/20 09:51:34;;;;;;;2.92;2.72;;;13.60;99.90;;;;;;4996761;28;20255;-73
2023/04/20 09:54:03;;;;;;;2.85;2.65;;;13.60;99.90;;;;;;4978415;28;20205;-72
2023/04/20 09:56:31;;;;;;;3.63;2.30;;;13.40;99.90;;;;;;4976915;28;20211;-72
2023/04/20 09:59:01;;;;;;;2.95;2.75;;;13.40;99.90;;;;;;4999169;28;20292;-73
2023/04/20 10:01:32;;;;;;;3.13;2.92;;;13.30;99.90;;;;;;4993685;28;20295;-73
2023/04/20 10:04:01;;;;;;;2.95;2.75;;;13.20;99.90;;;;;;4999018;28;20260;-73
2023/04/20 10:06:29;;;;;;;3.40;3.10;;;13.10;99.90;;;;;;4979392;28;20291;-72
2023/04/20 10:08:57;;;;;;;3.10;2.90;;;13.10;99.90;;;;;;5004235;28;20292;-72
2023/04/20 10:11:28;;;;;;;3.00;2.80;;;13.10;99.90;;;;;;4967171;28;20248;-73
2023/04/20 10:13:56;;;;;;;2.80;2.60;;;13.20;99.90;;;;;;5003734;28;20251;-73
2023/04/20 10:16:26;;;;;;;2.75;2.55;;;13.30;99.90;;;;;;4983573;28;20276;-73
2023/04/20 10:18:57;;;;;;;2.83;2.63;;;13.40;99.90;;;;;;5003617;28;20200;-73
2023/04/20 10:21:25;;;;;;;2.20;2.10;;;13.60;99.90;;;;;;4985617;28;20203;-73
2023/04/20 10:23:52;;;;;;;2.78;2.67;;;13.70;99.90;;;;;;5003056;28;20909;-73
2023/04/20 10:26:19;;;;;;;3.97;3.67;;;13.80;99.90;;;;;;4999868;28;20938;-73
2023/04/20 10:28:47;;;;;;;3.05;2.85;;;13.90;99.90;;;;;;4997456;28;20209;-73
2023/04/20 10:31:15;;;;;;;2.85;2.63;;;14.00;99.90;;;;;;4999168;28;20515;-73
2023/04/20 10:33:52;;;;;;;2.40;2.30;;;14.10;99.90;;;;;;5001477;28;20220;-73
2023/04/20 10:36:28;;;;;;;2.83;2.63;;;14.30;99.90;;;;;;5000435;28;20321;-72
2023/04/20 10:38:56;;;;;;;2.85;2.65;;;14.40;99.90;;;;;;5000672;28;20204;-73
2023/04/20 10:41:23;;;;;;;2.13;2.03;;;14.30;99.90;;;;;;5001849;28;20201;-72
2023/04/20 10:43:50;;;;;;;2.90;2.65;;;14.20;99.90;;;;;;4999846;28;20336;-73
2023/04/20 10:46:18;;;;;;;3.05;2.67;;;14.20;99.90;;;;;;4987711;28;20196;-73
2023/04/20 10:49:00;;;;;;;2.90;2.70;;;14.20;99.90;;;;;;4998355;28;20785;-73
2023/04/20 10:51:28;;;;;;;2.50;2.30;;;14.20;99.90;;;;;;5000769;28;20972;-73
2023/04/20 10:54:03;;;;;;;2.78;2.58;;;14.00;99.90;;;;;;5004105;28;20271;-73
2023/04/20 10:56:37;;;;;;;3.03;2.38;;;14.00;99.90;;;;;;5000278;28;20211;-73
2023/04/20 10:59:08;;;;;;;2.13;2.03;;;14.00;99.90;;;;;;4998070;28;20295;-73
2023/04/20 11:01:35;;;;;;;2.30;2.20;;;14.10;99.90;;;;;;5003604;28;20913;-73
2023/04/20 11:04:04;;;;;;;2.10;2.00;;;14.10;99.90;;;;;;5001561;28;20208;-73
2023/04/20 11:06:31;;;;;;;2.10;2.00;;;14.10;99.90;;;;;;4997503;28;20236;-73
2023/04/20 11:08:58;;;;;;;2.33;2.22;;;14.10;99.90;;;;;;4982744;28;20208;-73
2023/04/20 11:11:28;;;;;;;2.38;2.00;;;14.00;99.90;;;;;;5002313;28;20339;-73
2023/04/20 11:14:07;;;;;;;2.35;2.15;;;13.90;99.90;;;;;;4984112;28;20322;-73
2023/04/20 11:16:35;;;;;;;2.05;1.95;;;13.80;99.90;;;;;;4982724;28;20212;-73
2023/04/20 11:19:04;;;;;;;1.83;1.73;;;13.90;99.90;;;;;;4995294;28;20228;-73
2023/04/20 11:21:38;;;;;;;2.22;2.13;;;14.00;99.90;;;;;;5001992;28;20231;-73
2023/04/20 11:24:06;;;;;;;1.88;1.77;;;14.10;99.90;;;;;;4996921;28;20599;-73
2023/04/20 11:26:39;;;;;;;1.90;1.80;;;14.20;99.90;;;;;;4997791;28;20232;-73
2023/04/20 11:29:06;;;;;;;2.13;2.03;;;14.40;99.90;;;;;;4985166;28;20603;-73
2023/04/20 11:31:34;;;;;;;2.20;2.10;;;14.60;99.90;;;;;;5002143;28;20799;-73
2023/04/20 11:34:01;;;;;;;2.28;2.17;;;14.60;99.90;;;;;;4996802;28;20200;-73
2023/04/20 11:36:30;;;;;;;2.17;2.08;;;14.50;99.90;;;;;;5000974;28;20480;-73
2023/04/20 11:39:08;;;;;;;1.90;1.80;;;14.40;99.90;;;;;;5001148;28;20710;-73
2023/04/20 11:41:37;;;;;;;1.70;1.60;;;14.30;99.90;;;;;;4983562;28;20626;-73
2023/04/20 11:44:05;;;;;;;1.80;1.70;;;14.30;99.90;;;;;;4985676;28;20206;-73
2023/04/20 11:46:36;;;;;;;3.22;1.80;;;14.40;99.90;;;;;;4997795;28;20485;-73
2023/04/20 11:49:04;;;;;;;2.00;1.90;;;14.40;99.90;;;;;;4998681;28;20460;-73
2023/04/20 11:51:32;;;;;;;2.13;2.03;;;14.30;99.90;;;;;;4983912;28;20221;-73
2023/04/20 11:54:00;;;;;;;1.88;1.77;;;14.10;99.90;;;;;;4999562;28;20279;-73
2023/04/20 11:56:27;;;;;;;2.25;2.10;;;14.00;99.90;;;;;;4996424;28;20724;-73
2023/04/20 11:58:54;;;;;;;1.88;1.77;;;13.90;99.90;;;;;;4998077;28;20247;-73
2023/04/20 12:01:21;;;;;;;1.75;1.65;;;13.70;99.90;;;;;;5001653;28;20291;-73
2023/04/20 12:03:48;;;;;;;1.90;1.80;;;13.60;99.90;;;;;;4983683;28;20264;-73
2023/04/20 12:06:15;;;;;;;1.95;1.83;;;13.50;99.90;;;;;;5000454;28;20231;-73
2023/04/20 12:08:44;;;;;;;2.03;1.92;;;13.50;99.90;;;;;;4998025;28;20597;-73
2023/04/20 12:11:11;;;;;;;2.10;1.90;;;13.70;99.90;;;;;;4999750;28;20219;-73
2023/04/20 12:13:39;;;;;;;2.10;2.00;;;13.80;99.90;;;;;;4998851;28;20259;-73
2023/04/20 12:16:06;;;;;;;2.13;2.03;;;13.70;99.90;;;;;;4999388;28;20750;-73
2023/04/20 12:18:33;;;;;;;2.00;1.90;;;13.70;99.90;;;;;;4998537;28;20290;-73
2023/04/20 12:21:01;;;;;;;1.95;1.85;;;13.80;99.90;;;;;;4998521;28;20565;-73
2023/04/20 12:23:28;;;;;;;2.10;2.00;;;13.70;99.90;;;;;;4982309;28;20312;-73
2023/04/20 12:25:57;;;;;;;1.58;1.52;;;13.70;99.90;;;;;;4978539;28;20196;-73
2023/04/20 12:28:23;;;;;;;1.70;1.60;;;13.70;99.90;;;;;;4982610;28;20207;-73
2023/04/20 12:30:51;;;;;;;1.90;1.80;;;13.70;99.90;;;;;;4998010;28;20839;-73
2023/04/20 12:33:18;;;;;;;1.60;1.50;;;13.70;99.90;;;;;;5004238;28;20311;-73
2023/04/20 12:35:45;;;;;;;2.17;1.98;;;13.60;99.90;;;;;;4991537;28;20225;-73
2023/04/20 12:38:12;;;;;;;2.40;2.13;;;13.40;99.90;;;;;;4995798;28;20204;-73
2023/04/20 12:40:40;;;;;;;1.60;1.50;;;13.20;99.90;;;;;;4997377;28;20298;-74
2023/04/20 12:43:08;;;;;;;1.90;1.80;;;13.00;99.90;;;;;;4994493;28;20765;-74
2023/04/20 12:45:35;;;;;;;1.88;1.77;;;12.80;99.90;;;;;;4994011;28;20815;-74
2023/04/20 12:48:02;;;;;;;2.10;2.00;;;12.60;99.90;;;;;;4999468;28;20240;-74
2023/04/20 12:50:29;;;;;;;2.08;1.98;;;12.50;99.90;;;;;;4998463;28;20244;-74